Time;durP1;ratioP1;P1;durP2;ratioP2;P2;SDS_P1;SDS_P2;PMS_P1;PMS_P2;Temp;Humidity;BMP_temperature;BMP_pressure;BME280_temperature;BME280_humidity;BME280_pressure;Samples;Min_cycle;Max_cycle;Signal;HPM_P1;HPM_P2
2023/08/12 00:01:16;;;;;;;17.25;8.68;;;;;;;20.74;100.00;101624.44;6191289;23;20005;-81
2023/08/12 00:03:42;;;;;;;15.00;8.57;;;;;;;20.75;100.00;101642.25;6217656;23;20001;-81
2023/08/12 00:06:07;;;;;;;16.23;9.10;;;;;;;20.70;100.00;101633.97;6217510;23;20375;-83
2023/08/12 00:08:32;;;;;;;15.35;8.90;;;;;;;20.75;100.00;101636.88;6217789;23;20007;-84
2023/08/12 00:10:58;;;;;;;17.38;8.60;;;;;;;20.71;100.00;101635.63;6217497;23;20030;-83
2023/08/12 00:13:23;;;;;;;16.48;8.80;;;;;;;20.63;100.00;101623.19;6190796;23;20008;-83
2023/08/12 00:15:48;;;;;;;16.90;8.30;;;;;;;20.74;100.00;101646.00;6217332;23;20096;-83
2023/08/12 00:18:15;;;;;;;15.65;8.50;;;;;;;20.79;100.00;101638.13;6217366;23;20004;-83
2023/08/12 00:20:40;;;;;;;13.90;8.80;;;;;;;20.80;100.00;101631.69;6217942;23;20099;-83
2023/08/12 00:23:05;;;;;;;17.25;9.38;;;;;;;20.77;100.00;101629.41;6217614;23;20409;-83
2023/08/12 00:25:31;;;;;;;17.58;9.70;;;;;;;20.71;100.00;101614.06;6217790;23;20047;-83
2023/08/12 00:27:56;;;;;;;17.13;10.20;;;;;;;20.73;100.00;101617.41;6217158;23;20084;-83
2023/08/12 00:30:21;;;;;;;16.95;10.13;;;;;;;20.64;100.00;101614.09;6217652;23;20004;-82
2023/08/12 00:32:47;;;;;;;16.23;9.73;;;;;;;20.72;100.00;101621.13;6217010;23;20015;-82
2023/08/12 00:35:12;;;;;;;16.35;9.88;;;;;;;20.76;100.00;101616.13;6217149;23;20071;-83
2023/08/12 00:37:37;;;;;;;14.30;8.85;;;;;;;20.76;100.00;101608.88;6216852;23;20032;-83
2023/08/12 00:40:04;;;;;;;17.70;9.90;;;;;;;20.76;100.00;101611.56;6217256;23;20001;-83
2023/08/12 00:42:29;;;;;;;20.58;10.23;;;;;;;20.69;100.00;101600.00;6217145;23;20067;-82
2023/08/12 00:44:54;;;;;;;18.60;10.30;;;;;;;20.71;100.00;101606.00;6217288;23;20004;-82
2023/08/12 00:47:21;;;;;;;17.02;10.15;;;;;;;20.67;100.00;101597.50;6217135;23;20008;-83
2023/08/12 00:49:47;;;;;;;16.65;9.45;;;;;;;20.77;100.00;101602.44;6217716;23;20051;-82
2023/08/12 00:52:17;;;;;;;16.13;10.18;;;;;;;20.73;100.00;101595.84;6217041;23;20001;-82
2023/08/12 00:54:43;;;;;;;16.92;10.75;;;;;;;20.65;100.00;101594.19;6217145;23;20110;-82
2023/08/12 00:57:08;;;;;;;17.05;10.57;;;;;;;20.67;100.00;101596.69;6217136;23;20005;-82
2023/08/12 00:59:37;;;;;;;16.33;10.50;;;;;;;20.60;100.00;101585.06;6216812;23;20380;-82
2023/08/12 01:02:04;;;;;;;16.42;10.32;;;;;;;20.58;100.00;101579.91;6190173;23;20506;-82
2023/08/12 01:04:29;;;;;;;19.95;11.00;;;;;;;20.61;100.00;101584.06;6216540;23;20031;-82
2023/08/12 01:06:55;;;;;;;20.13;11.45;;;;;;;20.64;100.00;101580.94;6216781;23;20434;-83
2023/08/12 01:09:20;;;;;;;20.80;10.80;;;;;;;20.66;100.00;101589.63;6216895;23;20361;-84
2023/08/12 01:12:12;;;;;;;18.92;10.88;;;;;;;20.62;100.00;101577.63;6190065;23;20012;-83
2023/08/12 01:15:20;;;;;;;16.58;11.18;;;;;;;20.60;100.00;101574.28;6216657;23;20011;-82
2023/08/12 01:17:51;;;;;;;18.40;10.93;;;;;;;20.63;100.00;101573.88;6214203;23;20016;-82
2023/08/12 01:20:17;;;;;;;20.98;11.43;;;;;;;20.56;100.00;101563.97;6216351;23;20048;-83
2023/08/12 01:22:44;;;;;;;19.40;11.57;;;;;;;20.49;100.00;101549.69;6216489;23;20101;-83
2023/08/12 01:25:09;;;;;;;19.75;11.50;;;;;;;20.53;100.00;101564.38;6216753;23;20027;-84
2023/08/12 01:27:36;;;;;;;20.90;11.82;;;;;;;20.50;100.00;101548.63;6216434;23;20428;-82
2023/08/12 01:30:01;;;;;;;19.65;11.77;;;;;;;20.44;100.00;101538.69;6190117;23;20004;-82
2023/08/12 01:32:51;;;;;;;19.98;11.27;;;;;;;20.44;100.00;101546.78;6216545;23;20460;-82
2023/08/12 01:35:20;;;;;;;20.65;11.65;;;;;;;20.49;100.00;101556.91;6216763;23;20005;-82
2023/08/12 01:37:49;;;;;;;17.98;11.32;;;;;;;20.46;100.00;101543.88;6216393;23;20055;-82
2023/08/12 01:40:17;;;;;;;17.65;10.95;;;;;;;20.42;100.00;101536.22;6216405;23;20001;-82
2023/08/12 01:42:42;;;;;;;16.83;10.43;;;;;;;20.50;100.00;101548.63;6216286;23;20029;-82
2023/08/12 01:45:08;;;;;;;20.60;11.07;;;;;;;20.45;100.00;101545.75;6216567;23;20373;-82
2023/08/12 01:47:33;;;;;;;18.50;10.88;;;;;;;20.40;100.00;101542.84;6216485;23;20020;-81
2023/08/12 01:49:59;;;;;;;15.73;10.57;;;;;;;20.31;100.00;101536.03;6216584;23;20104;-82
2023/08/12 01:52:24;;;;;;;16.90;10.43;;;;;;;20.38;100.00;101534.16;6216529;23;20002;-81
2023/08/12 01:54:49;;;;;;;17.92;10.57;;;;;;;20.27;100.00;101522.16;6216345;23;20384;-82
2023/08/12 01:57:15;;;;;;;14.88;10.25;;;;;;;20.26;100.00;101526.72;6217003;23;20004;-82
2023/08/12 01:59:41;;;;;;;18.20;10.55;;;;;;;20.27;100.00;101522.16;6216297;23;20001;-83
2023/08/12 02:02:06;;;;;;;16.08;10.23;;;;;;;20.33;100.00;101531.25;6217350;23;20001;-82
2023/08/12 02:04:32;;;;;;;15.25;9.63;;;;;;;20.30;100.00;101537.91;6216720;23;20095;-82
2023/08/12 02:06:58;;;;;;;17.23;9.85;;;;;;;20.20;100.00;101511.41;6228664;23;20027;-82
2023/08/12 02:09:23;;;;;;;15.43;10.00;;;;;;;20.29;100.00;101520.09;6227455;23;20357;-82
2023/08/12 02:11:49;;;;;;;17.67;9.52;;;;;;;20.27;100.00;101528.38;6232838;23;20012;-82
2023/08/12 02:14:15;;;;;;;17.52;9.43;;;;;;;20.13;100.00;101505.22;6203123;23;20020;-82
2023/08/12 02:16:40;;;;;;;17.42;9.50;;;;;;;20.18;100.00;101508.06;6229938;23;20075;-83
2023/08/12 02:19:06;;;;;;;17.58;9.25;;;;;;;20.31;100.00;101530.66;6228215;23;20012;-83
2023/08/12 02:21:32;;;;;;;16.60;9.70;;;;;;;20.26;100.00;101532.09;6229258;23;20004;-83
2023/08/12 02:23:57;;;;;;;17.67;9.27;;;;;;;20.26;100.00;101529.41;6193484;23;20433;-82
2023/08/12 02:26:22;;;;;;;15.80;8.55;;;;;;;20.27;100.00;101522.97;6216697;23;20438;-83
2023/08/12 02:28:48;;;;;;;14.68;8.30;;;;;;;20.24;100.00;101511.81;6216712;23;20077;-84
2023/08/12 02:31:14;;;;;;;16.80;8.18;;;;;;;20.10;100.00;101501.06;6216490;23;20256;-82
2023/08/12 02:33:40;;;;;;;17.08;8.38;;;;;;;20.13;100.00;101505.22;6216800;23;20005;-83
2023/08/12 02:36:05;;;;;;;18.45;8.40;;;;;;;20.15;100.00;101508.50;6215698;23;20015;-83
2023/08/12 02:38:30;;;;;;;16.73;8.50;;;;;;;20.07;100.00;101500.66;6216045;23;20299;-83
2023/08/12 02:40:56;;;;;;;14.48;8.43;;;;;;;20.12;100.00;101503.53;6215977;23;20004;-83
2023/08/12 02:43:21;;;;;;;14.48;8.30;;;;;;;20.00;100.00;101477.28;6215597;23;20032;-84
2023/08/12 02:45:46;;;;;;;13.57;8.13;;;;;;;20.09;100.00;101493.19;6216182;23;20070;-83
2023/08/12 02:48:12;;;;;;;15.10;8.32;;;;;;;20.11;100.00;101491.09;6215865;23;20008;-83
2023/08/12 02:50:38;;;;;;;16.02;8.68;;;;;;;20.02;100.00;101474.34;6215716;23;20346;-81
2023/08/12 02:53:05;;;;;;;17.02;7.90;;;;;;;20.10;100.00;101493.00;6215524;23;20004;-83
2023/08/12 02:55:31;;;;;;;15.85;7.90;;;;;;;20.09;100.00;101498.56;6189061;23;20013;-83
2023/08/12 02:57:57;;;;;;;15.02;8.10;;;;;;;20.06;100.00;101482.81;6215853;23;20374;-82
2023/08/12 03:00:22;;;;;;;13.85;7.68;;;;;;;20.03;100.00;101484.91;6215464;23;20035;-83
2023/08/12 03:02:48;;;;;;;11.90;7.40;;;;;;;20.09;100.00;101482.44;6215349;23;20004;-85
2023/08/12 03:05:13;;;;;;;13.95;7.60;;;;;;;20.08;100.00;101476.19;6215693;23;20122;-83
2023/08/12 03:07:38;;;;;;;11.70;7.45;;;;;;;20.09;100.00;101485.13;6215167;23;19996;-83
2023/08/12 03:10:04;;;;;;;12.30;7.22;;;;;;;20.03;100.00;101476.84;6215678;23;20119;-82
2023/08/12 03:12:29;;;;;;;15.30;7.30;;;;;;;20.01;100.00;101478.91;6188584;23;20012;-83
2023/08/12 03:14:55;;;;;;;12.35;7.20;;;;;;;19.93;100.00;101464.81;6215582;23;20005;-83
2023/08/12 03:17:20;;;;;;;15.13;6.88;;;;;;;19.93;100.00;101465.63;6216080;23;20005;-84
2023/08/12 03:19:45;;;;;;;13.23;7.18;;;;;;;19.87;100.00;101467.31;6215003;23;20012;-83
2023/08/12 03:22:11;;;;;;;12.70;7.07;;;;;;;19.88;100.00;101460.03;6189068;23;20066;-83
2023/08/12 03:24:36;;;;;;;13.38;7.05;;;;;;;19.88;100.00;101455.50;6215551;23;20023;-83
2023/08/12 03:27:01;;;;;;;11.80;7.28;;;;;;;19.87;100.00;101451.16;6215609;23;20039;-84
2023/08/12 03:29:27;;;;;;;13.15;7.10;;;;;;;19.94;100.00;101455.69;6214952;23;20105;-82
2023/08/12 03:31:52;;;;;;;14.02;7.43;;;;;;;19.85;100.00;101449.72;6215365;23;20027;-83
2023/08/12 03:34:17;;;;;;;14.85;6.95;;;;;;;19.92;100.00;101455.09;6215409;23;20004;-83
2023/08/12 03:36:43;;;;;;;14.30;7.30;;;;;;;19.87;100.00;101447.63;6215603;23;20019;-80
2023/08/12 03:39:08;;;;;;;13.48;7.50;;;;;;;19.80;100.00;101433.34;6214954;23;20329;-82
2023/08/12 03:41:34;;;;;;;13.90;7.72;;;;;;;19.70;100.00;101428.41;6215764;23;20032;-83
2023/08/12 03:43:59;;;;;;;16.10;7.20;;;;;;;19.72;100.00;101432.53;6215573;23;20012;-82
2023/08/12 03:46:25;;;;;;;11.07;6.80;;;;;;;19.73;100.00;101444.97;6188936;23;20079;-82
2023/08/12 03:48:50;;;;;;;13.50;7.40;;;;;;;19.62;100.00;101429.44;6215540;23;20430;-81
2023/08/12 03:51:15;;;;;;;14.93;7.55;;;;;;;19.70;100.00;101440.00;6215550;23;20023;-82
2023/08/12 03:53:41;;;;;;;11.35;6.82;;;;;;;19.71;100.00;101433.59;6215487;23;20000;-82
2023/08/12 03:56:06;;;;;;;13.40;6.88;;;;;;;19.64;100.00;101422.00;6188565;23;20001;-82
2023/08/12 03:58:32;;;;;;;13.52;6.90;;;;;;;19.68;100.00;101434.00;6188312;23;20024;-81
2023/08/12 04:00:57;;;;;;;14.07;6.93;;;;;;;19.55;100.00;101417.84;6215254;23;20013;-85
2023/08/12 04:03:23;;;;;;;12.23;6.60;;;;;;;19.67;100.00;101420.72;6213907;23;20005;-82
2023/08/12 04:05:50;;;;;;;11.43;6.35;;;;;;;19.69;100.00;101429.44;6214065;23;20004;-82
2023/08/12 04:08:15;;;;;;;13.63;6.05;;;;;;;19.64;100.00;101427.38;6214989;23;20004;-83
2023/08/12 04:10:44;;;;;;;11.10;6.03;;;;;;;19.49;100.00;101404.19;6215470;23;20063;-83
2023/08/12 04:13:09;;;;;;;9.55;5.80;;;;;;;19.63;100.00;101421.16;6215090;23;20004;-84
2023/08/12 04:15:35;;;;;;;10.88;5.68;;;;;;;19.54;100.00;101392.00;6215268;23;20016;-82
2023/08/12 04:18:00;;;;;;;10.35;5.63;;;;;;;19.52;100.00;101385.97;6188740;23;20023;-82
2023/08/12 04:20:25;;;;;;;9.27;4.90;;;;;;;19.57;100.00;101408.56;6188147;23;20025;-82
2023/08/12 04:22:51;;;;;;;11.27;5.47;;;;;;;19.42;100.00;101403.38;6215896;23;20008;-82
2023/08/12 04:25:16;;;;;;;9.73;5.50;;;;;;;19.52;100.00;101404.81;6215718;23;20004;-82
2023/08/12 04:27:41;;;;;;;9.63;5.50;;;;;;;19.49;100.00;101406.88;6215363;23;20005;-83
2023/08/12 04:30:07;;;;;;;10.43;5.45;;;;;;;19.48;100.00;101397.19;6215047;23;20396;-81
2023/08/12 04:32:32;;;;;;;12.30;6.03;;;;;;;19.53;100.00;101411.88;6215067;23;20079;-82
2023/08/12 04:34:58;;;;;;;13.38;5.93;;;;;;;19.40;100.00;101399.25;6214244;23;20087;-82
2023/08/12 04:37:24;;;;;;;10.68;6.15;;;;;;;19.45;100.00;101396.75;6215136;23;20056;-82
2023/08/12 04:39:49;;;;;;;11.30;6.55;;;;;;;19.57;100.00;101423.84;6216229;23;20007;-82
2023/08/12 04:42:15;;;;;;;14.93;6.60;;;;;;;19.47;100.00;101395.53;6216741;23;20005;-83
2023/08/12 04:44:41;;;;;;;14.07;7.25;;;;;;;19.43;100.00;101382.69;6217267;23;20422;-82
2023/08/12 04:47:06;;;;;;;14.32;7.65;;;;;;;19.28;100.00;101374.84;6216751;23;20015;-84
2023/08/12 04:49:32;;;;;;;17.55;8.20;;;;;;;19.41;100.00;101395.50;6217123;23;20035;-86
2023/08/12 04:51:58;;;;;;;16.67;8.25;;;;;;;19.42;100.00;101398.00;6217261;23;20008;-83
2023/08/12 04:54:23;;;;;;;15.48;7.97;;;;;;;19.30;100.00;101388.91;6190294;23;20119;-84
2023/08/12 04:56:49;;;;;;;16.23;7.90;;;;;;;19.32;100.00;101392.19;6216567;23;20422;-84
2023/08/12 04:59:14;;;;;;;11.60;6.90;;;;;;;19.30;100.00;101388.91;6217216;23;20005;-85
2023/08/12 05:01:40;;;;;;;17.08;7.35;;;;;;;19.16;100.00;101367.41;6217085;23;20110;-85
2023/08/12 05:04:05;;;;;;;9.25;6.30;;;;;;;19.25;100.00;101381.47;6217245;23;20008;-85
2023/08/12 05:06:31;;;;;;;10.85;6.22;;;;;;;19.17;100.00;101378.97;6216712;23;20016;-85
2023/08/12 05:08:56;;;;;;;9.70;6.18;;;;;;;19.13;100.00;101377.75;6217107;23;20071;-86
2023/08/12 05:11:22;;;;;;;9.75;6.22;;;;;;;19.16;100.00;101388.91;6216683;23;20031;-84
2023/08/12 05:13:47;;;;;;;12.20;6.45;;;;;;;19.02;100.00;101365.69;6217256;23;20005;-86
2023/08/12 05:16:12;;;;;;;13.65;6.22;;;;;;;19.04;100.00;101358.28;6217080;23;20024;-87
2023/08/12 05:18:37;;;;;;;12.73;6.75;;;;;;;19.16;100.00;101372.78;6217071;23;20175;-87
2023/08/12 05:21:03;;;;;;;11.05;6.40;;;;;;;19.16;100.00;101378.16;6217116;23;20004;-84
2023/08/12 05:23:28;;;;;;;12.07;6.55;;;;;;;19.16;100.00;101378.16;6217265;23;20036;-87
2023/08/12 05:25:53;;;;;;;12.20;6.78;;;;;;;19.05;100.00;101359.94;6217362;23;20005;-87
2023/08/12 05:28:19;;;;;;;10.73;7.10;;;;;;;19.06;100.00;101346.28;6218042;23;20078;-87
2023/08/12 05:30:44;;;;;;;12.50;7.13;;;;;;;19.04;100.00;101350.22;6190543;23;19997;-87
2023/08/12 05:33:10;;;;;;;10.05;6.60;;;;;;;19.06;100.00;101362.41;6216688;23;20015;-87
2023/08/12 05:35:35;;;;;;;10.30;6.47;;;;;;;18.99;100.00;101344.63;6217184;23;20007;-88
2023/08/12 05:38:01;;;;;;;9.00;6.13;;;;;;;19.08;100.00;101363.03;6217174;23;20005;-88
2023/08/12 05:40:27;;;;;;;9.75;5.82;;;;;;;19.08;100.00;101363.03;6216503;23;20008;-89
2023/08/12 05:42:52;;;;;;;10.32;5.95;;;;;;;19.01;100.00;101347.91;6217370;23;20059;-87
2023/08/12 05:45:18;;;;;;;7.90;5.40;;;;;;;19.03;100.00;101346.69;6190897;23;20054;-88
2023/08/12 05:47:43;;;;;;;11.63;5.55;;;;;;;19.03;100.00;101340.50;6217873;23;20008;-89
2023/08/12 05:50:09;;;;;;;7.85;5.15;;;;;;;19.11;100.00;101359.13;6190389;23;20103;-88
2023/08/12 05:52:34;;;;;;;8.57;5.32;;;;;;;19.10;100.00;101360.16;6217544;23;20015;-92
2023/08/12 05:55:00;;;;;;;6.95;5.10;;;;;;;19.06;100.00;101353.53;6190561;23;20054;-86
2023/08/12 05:57:25;;;;;;;6.95;5.15;;;;;;;19.03;100.00;101340.50;6217607;23;20032;-88
2023/08/12 05:59:50;;;;;;;6.65;5.30;;;;;;;19.06;100.00;101351.66;6216659;23;20009;-86
2023/08/12 06:02:17;;;;;;;6.63;5.20;;;;;;;19.05;100.00;101346.50;6217208;23;20001;-87
2023/08/12 06:04:42;;;;;;;8.40;5.20;;;;;;;19.00;100.00;101351.63;6190123;23;20306;-85
2023/08/12 06:07:07;;;;;;;6.35;4.90;;;;;;;19.02;100.00;101352.25;6217293;23;20015;-86
2023/08/12 06:09:33;;;;;;;7.28;5.20;;;;;;;19.01;100.00;101353.28;6216980;23;20019;-86
2023/08/12 06:11:58;;;;;;;8.23;5.30;;;;;;;18.98;100.00;101341.09;6217462;23;20012;-91
2023/08/12 06:14:23;;;;;;;9.57;5.60;;;;;;;18.99;100.00;101340.03;6191983;23;20004;-90
2023/08/12 06:16:49;;;;;;;7.65;4.95;;;;;;;19.00;100.00;101343.56;6191673;23;20004;-88
2023/08/12 06:19:14;;;;;;;7.18;4.88;;;;;;;19.03;100.00;101345.88;6191430;23;20058;-89
2023/08/12 06:21:39;;;;;;;6.85;5.03;;;;;;;18.96;100.00;101327.84;6218216;23;19996;-89
2023/08/12 06:24:05;;;;;;;6.70;4.93;;;;;;;18.93;100.00;101322.06;6218216;23;20076;-88
2023/08/12 06:26:33;;;;;;;8.48;5.22;;;;;;;18.88;100.00;101301.19;6191551;23;20012;-89
2023/08/12 06:28:58;;;;;;;7.40;5.28;;;;;;;18.87;100.00;101312.97;6191990;23;20012;-90
2023/08/12 06:31:24;;;;;;;6.00;4.95;;;;;;;18.96;100.00;101319.78;6191917;23;20012;-90
2023/08/12 06:33:49;;;;;;;8.73;5.20;;;;;;;18.89;100.00;101294.78;6191962;23;20008;-91
2023/08/12 06:36:14;;;;;;;6.43;5.10;;;;;;;18.90;100.00;101301.78;6191389;23;20126;-91
2023/08/12 06:38:40;;;;;;;6.18;4.80;;;;;;;18.89;100.00;101296.66;6218302;23;20039;-90
2023/08/12 06:41:05;;;;;;;5.50;4.60;;;;;;;18.99;100.00;101302.41;6191657;23;20005;-90
2023/08/12 06:43:30;;;;;;;4.82;3.80;;;;;;;19.11;100.00;101318.81;6191809;23;20473;-91
2023/08/12 06:45:56;;;;;;;4.18;3.75;;;;;;;19.11;100.00;101321.50;6192045;23;20016;-93
2023/08/12 06:48:21;;;;;;;4.40;3.92;;;;;;;19.08;100.00;101305.75;6216848;23;20012;-91
2023/08/12 06:50:53;;;;;;;4.63;3.90;;;;;;;19.07;100.00;101298.75;6218832;23;20038;-91
2023/08/12 06:53:18;;;;;;;4.20;3.80;;;;;;;19.09;100.00;101302.88;6192331;23;20005;-91
2023/08/12 06:55:45;;;;;;;4.40;4.00;;;;;;;19.21;100.00;101316.50;6218217;23;20004;-91
2023/08/12 06:58:10;;;;;;;4.32;3.92;;;;;;;19.24;100.00;101309.06;6192227;23;20437;-93
2023/08/12 07:00:36;;;;;;;5.22;3.90;;;;;;;19.17;100.00;101293.78;6191679;23;20020;-93
2023/08/12 07:03:01;;;;;;;4.63;4.07;;;;;;;19.27;100.00;101303.28;6191552;23;20004;-92
2023/08/12 07:05:26;;;;;;;4.60;4.20;;;;;;;19.30;100.00;101303.69;6191851;23;20012;-92
2023/08/12 07:07:52;;;;;;;5.70;4.38;;;;;;;19.12;100.00;101274.75;6192128;23;20040;-91
2023/08/12 07:10:17;;;;;;;4.72;4.32;;;;;;;19.18;100.00;101279.28;6218508;23;20066;-90
2023/08/12 07:12:45;;;;;;;6.30;4.30;;;;;;;19.20;100.00;101287.97;6192199;23;20087;-92
2023/08/12 07:15:10;;;;;;;5.55;4.78;;;;;;;19.34;100.00;101298.72;6191977;23;20009;-87
2023/08/12 07:17:36;;;;;;;5.15;4.75;;;;;;;19.30;100.00;101292.91;6216621;23;20078;-87
2023/08/12 07:20:02;;;;;;;4.97;4.57;;;;;;;19.31;100.00;101289.22;6216494;23;20012;-87
2023/08/12 07:22:27;;;;;;;5.78;4.70;;;;;;;19.38;100.00;101299.13;6216567;23;20063;-86
2023/08/12 07:24:53;;;;;;;5.72;4.90;;;;;;;19.28;100.00;101283.44;6216207;23;20011;-86
2023/08/12 07:27:18;;;;;;;5.60;4.97;;;;;;;19.33;100.00;101289.81;6216467;23;20428;-87
2023/08/12 07:29:43;;;;;;;5.38;4.82;;;;;;;19.28;100.00;101286.94;6189555;23;20019;-87
2023/08/12 07:32:08;;;;;;;5.50;5.00;;;;;;;19.28;100.00;101288.81;6189888;23;20027;-86
2023/08/12 07:34:34;;;;;;;5.90;5.30;;;;;;;19.42;100.00;101308.41;6216296;23;20047;-88
2023/08/12 07:36:59;;;;;;;6.15;5.50;;;;;;;19.39;100.00;101298.91;6216550;23;20075;-87
2023/08/12 07:39:24;;;;;;;6.20;5.38;;;;;;;19.33;100.00;101297.06;6215917;23;20012;-90
2023/08/12 07:41:50;;;;;;;6.05;5.18;;;;;;;19.44;100.00;101304.50;6216567;23;20012;-87
2023/08/12 07:44:15;;;;;;;4.88;4.40;;;;;;;19.38;100.00;101294.56;6216191;23;20013;-89
2023/08/12 07:46:40;;;;;;;5.78;4.57;;;;;;;19.43;100.00;101292.09;6216345;23;20412;-86
2023/08/12 07:49:06;;;;;;;4.57;4.18;;;;;;;19.39;100.00;101274.72;6216036;23;20004;-87
2023/08/12 07:51:31;;;;;;;4.57;4.13;;;;;;;19.52;100.00;101283.78;6215632;23;20001;-87
2023/08/12 07:53:56;;;;;;;4.40;3.95;;;;;;;19.46;100.00;101278.22;6215409;23;20012;-87
2023/08/12 07:56:22;;;;;;;4.88;4.07;;;;;;;19.59;100.00;101301.56;6215833;23;20159;-86
2023/08/12 07:58:47;;;;;;;4.18;3.78;;;;;;;19.64;100.00;101303.63;6215653;23;20016;-85
2023/08/12 08:01:13;;;;;;;3.92;3.30;;;;;;;19.57;100.00;101287.50;6215839;23;20075;-85
2023/08/12 08:03:38;;;;;;;3.60;3.30;;;;;;;19.67;100.00;101303.19;6215782;23;20024;-85
2023/08/12 08:06:04;;;;;;;3.25;3.05;;;;;;;19.75;100.00;101316.41;6215593;23;20441;-86
2023/08/12 08:08:29;;;;;;;3.78;3.47;;;;;;;19.84;100.00;101314.31;6216551;23;20008;-88
2023/08/12 08:10:55;;;;;;;3.35;3.05;;;;;;;19.75;100.00;101302.16;6215265;23;20074;-87
2023/08/12 08:13:20;;;;;;;2.85;2.65;;;;;;;19.78;100.00;101308.97;6189528;23;20487;-91
2023/08/12 08:15:46;;;;;;;3.10;2.80;;;;;;;19.80;100.00;101317.66;6218960;23;20015;-88
2023/08/12 08:18:11;;;;;;;2.97;2.70;;;;;;;19.85;100.00;101325.91;6218158;23;20008;-88
2023/08/12 08:20:36;;;;;;;3.33;3.00;;;;;;;19.80;100.00;101334.63;6218517;23;20000;-86
2023/08/12 08:23:02;;;;;;;3.20;3.00;;;;;;;19.73;100.00;101325.72;6192666;23;20062;-88
2023/08/12 08:25:27;;;;;;;3.65;3.42;;;;;;;19.76;100.00;101328.00;6218278;23;20008;-88
2023/08/12 08:27:53;;;;;;;3.60;3.40;;;;;;;19.70;100.00;101324.31;6218258;23;20083;-89
2023/08/12 08:30:18;;;;;;;4.32;3.95;;;;;;;19.75;100.00;101321.78;6218963;23;20418;-87
2023/08/12 08:32:43;;;;;;;5.10;4.60;;;;;;;19.75;100.00;101319.09;6218031;23;20015;-88
2023/08/12 08:35:09;;;;;;;6.22;5.38;;;;;;;19.88;100.00;101336.25;6191468;23;20004;-87
2023/08/12 08:37:34;;;;;;;6.80;6.10;;;;;;;19.72;100.00;101316.84;6218097;23;20387;-88
2023/08/12 08:39:59;;;;;;;7.45;6.43;;;;;;;19.84;100.00;101335.03;6217689;23;20063;-88
2023/08/12 08:42:25;;;;;;;8.00;7.20;;;;;;;19.90;100.00;101344.94;6218281;23;20088;-88
2023/08/12 08:44:55;;;;;;;8.35;7.57;;;;;;;19.80;100.00;101331.09;6217720;23;20337;-87
2023/08/12 08:47:25;;;;;;;8.73;7.85;;;;;;;19.86;100.00;101343.72;6217597;23;20013;-85
2023/08/12 08:49:52;;;;;;;10.00;9.00;;;;;;;19.87;100.00;101339.97;6190600;23;20000;-85
2023/08/12 08:52:18;;;;;;;10.10;9.20;;;;;;;19.86;100.00;101339.16;6217211;23;20012;-86
2023/08/12 08:54:44;;;;;;;11.85;10.00;;;;;;;19.92;100.00;101336.69;6217320;23;20023;-86
2023/08/12 08:57:12;;;;;;;11.00;10.00;;;;;;;19.92;100.00;101337.47;6217305;23;20425;-86
2023/08/12 08:59:37;;;;;;;11.00;9.90;;;;;;;20.00;100.00;101349.91;6190365;23;20340;-86
2023/08/12 09:02:04;;;;;;;10.10;9.10;;;;;;;19.76;100.00;101326.16;6217333;23;20001;-86
2023/08/12 09:04:31;;;;;;;10.43;9.52;;;;;;;19.93;100.00;101354.47;6217494;23;20004;-87
2023/08/12 09:06:58;;;;;;;10.40;9.40;;;;;;;19.78;100.00;101339.38;6191168;23;20430;-86
2023/08/12 09:09:24;;;;;;;10.48;8.32;;;;;;;19.80;100.00;101344.56;6217412;23;20004;-86
2023/08/12 09:11:52;;;;;;;7.20;6.60;;;;;;;19.74;100.00;101355.13;6217034;23;20155;-85
2023/08/12 09:14:18;;;;;;;7.63;6.88;;;;;;;19.74;100.00;101363.19;6217051;23;20393;-86
2023/08/12 09:16:43;;;;;;;6.93;6.32;;;;;;;19.81;100.00;101367.75;6217371;23;20012;-86
2023/08/12 09:19:09;;;;;;;6.50;5.90;;;;;;;19.73;100.00;101358.84;6217147;23;20086;-86
2023/08/12 09:21:34;;;;;;;6.32;5.72;;;;;;;19.82;100.00;101369.38;6190751;23;20075;-86
2023/08/12 09:24:04;;;;;;;5.10;4.70;;;;;;;19.86;100.00;101392.16;6217720;23;20008;-87
2023/08/12 09:26:29;;;;;;;4.60;4.30;;;;;;;19.76;100.00;101398.81;6217666;23;20026;-88
2023/08/12 09:28:54;;;;;;;4.97;4.40;;;;;;;19.72;100.00;101386.81;6216990;23;20437;-87
2023/08/12 09:31:29;;;;;;;3.67;3.38;;;;;;;19.74;100.00;101392.78;6217815;23;20091;-86
2023/08/12 09:33:59;;;;;;;3.28;3.03;;;;;;;19.66;100.00;101393.03;6230964;23;19989;-87
2023/08/12 09:36:28;;;;;;;4.82;3.28;;;;;;;19.63;100.00;101401.50;6234867;22;20393;-87
2023/08/12 09:38:54;;;;;;;3.65;3.22;;;;;;;19.66;100.00;101393.03;6222523;23;20011;-85
2023/08/12 09:41:19;;;;;;;5.45;3.08;;;;;;;19.66;100.00;101392.19;6225237;23;20009;-85
2023/08/12 09:43:44;;;;;;;3.97;3.03;;;;;;;19.64;100.00;101395.09;6241370;23;20001;-84
2023/08/12 09:46:12;;;;;;;4.32;3.22;;;;;;;19.58;100.00;101390.53;6240625;23;20012;-85
2023/08/12 09:48:38;;;;;;;3.92;3.15;;;;;;;19.71;100.00;101395.06;6239981;23;20096;-85
2023/08/12 09:51:03;;;;;;;5.60;3.70;;;;;;;19.80;100.00;101399.22;6239117;23;20324;-85
2023/08/12 09:53:29;;;;;;;4.78;3.40;;;;;;;19.76;100.00;101406.88;6238270;23;20012;-86
2023/08/12 09:55:59;;;;;;;3.17;2.88;;;;;;;19.71;100.00;101392.38;6229546;23;20055;-85
2023/08/12 09:58:28;;;;;;;3.92;2.60;;;;;;;19.70;100.00;101388.88;6191778;23;20083;-86
2023/08/12 10:00:54;;;;;;;3.33;2.50;;;;;;;19.88;100.00;101414.28;6217098;23;20012;-85
2023/08/12 10:03:20;;;;;;;3.80;2.50;;;;;;;20.13;100.00;101414.47;6216828;23;20043;-86
2023/08/12 10:05:46;;;;;;;4.05;2.70;;;;;;;20.05;100.00;101403.13;6218133;23;20004;-88
2023/08/12 10:08:13;;;;;;;4.93;2.97;;;;;;;20.13;100.00;101419.06;6217541;23;20011;-87
2023/08/12 10:10:39;;;;;;;4.35;3.03;;;;;;;20.09;100.00;101407.03;6217254;23;20012;-87
2023/08/12 10:13:07;;;;;;;3.97;2.63;;;;;;;20.20;100.00;101419.84;6226551;23;20004;-87
2023/08/12 10:15:33;;;;;;;5.65;2.30;;;;;;;20.16;100.00;101407.84;6241876;23;20001;-87
2023/08/12 10:17:58;;;;;;;4.40;2.03;;;;;;;20.09;100.00;101398.97;6218686;23;20338;-86
2023/08/12 10:20:24;;;;;;;5.55;2.20;;;;;;;20.23;100.00;101410.53;6217476;23;20035;-87
2023/08/12 10:22:51;;;;;;;4.57;2.20;;;;;;;20.23;100.00;101414.03;6217104;23;20011;-86
2023/08/12 10:25:21;;;;;;;6.28;2.20;;;;;;;20.23;100.00;101414.03;6190349;23;20016;-86
2023/08/12 10:27:48;;;;;;;4.63;1.95;;;;;;;20.14;100.00;101401.84;6217397;23;20040;-85
2023/08/12 10:30:14;;;;;;;5.47;2.05;;;;;;;20.12;99.67;101401.22;6217205;23;20004;-85
2023/08/12 10:32:40;;;;;;;5.68;2.28;;;;;;;20.14;100.00;101393.78;6216467;23;20083;-85
2023/08/12 10:35:06;;;;;;;5.60;2.25;;;;;;;20.26;100.00;101405.53;6217091;23;20080;-85
2023/08/12 10:37:33;;;;;;;5.35;2.30;;;;;;;20.42;100.00;101401.53;6216231;23;20325;-87
2023/08/12 10:40:05;;;;;;;5.65;2.50;;;;;;;20.43;100.00;101402.38;6216632;23;20027;-85
2023/08/12 10:42:42;;;;;;;5.45;2.20;;;;;;;20.56;100.00;101407.69;6217075;23;20004;-85
2023/08/12 10:45:08;;;;;;;5.25;2.35;;;;;;;20.56;100.00;101407.69;6216387;23;20343;-85
2023/08/12 10:47:37;;;;;;;6.18;2.40;;;;;;;20.54;98.69;101420.53;6215988;23;20400;-85
2023/08/12 10:50:02;;;;;;;5.45;2.20;;;;;;;20.59;99.90;101416.38;6216106;23;20008;-85
2023/08/12 10:52:29;;;;;;;5.13;2.35;;;;;;;20.63;99.99;101409.53;6216541;23;20027;-86
2023/08/12 10:55:01;;;;;;;5.82;2.30;;;;;;;20.83;100.00;101410.22;6215997;23;20005;-83
2023/08/12 10:57:38;;;;;;;5.17;2.40;;;;;;;21.02;95.32;101418.44;6216375;23;20012;-85
2023/08/12 11:00:04;;;;;;;5.68;2.30;;;;;;;20.87;96.36;101407.16;6216140;23;20290;-83
2023/08/12 11:02:33;;;;;;;4.95;2.40;;;;;;;20.91;95.12;101424.53;6215917;23;20005;-85
2023/08/12 11:05:04;;;;;;;6.53;2.80;;;;;;;20.92;98.14;101420.81;6215748;23;20108;-84
2023/08/12 11:07:38;;;;;;;4.60;2.28;;;;;;;20.93;94.25;101427.84;6189127;23;20000;-83